Time;durP1;ratioP1;P1;durP2;ratioP2;P2;SDS_P1;SDS_P2;PMS_P1;PMS_P2;Temp;Humidity;BMP_temperature;BMP_pressure;BME280_temperature;BME280_humidity;BME280_pressure;Samples;Min_cycle;Max_cycle;Signal;HPM_P1;HPM_P2
2021/01/25 00:00:04;;;;;;;;;;;1.60;99.90;;;;;;5049875;28;19919;-69
2021/01/25 00:03:16;;;;;;;;;;;1.60;99.90;;;;;;5049858;28;19927;-68
2021/01/25 00:06:20;;;;;;;;;;;1.70;99.90;;;;;;5038028;28;19924;-66
2021/01/25 00:09:24;;;;;;;;;;;1.60;99.90;;;;;;5044870;28;20075;-69
2021/01/25 00:12:28;;;;;;;;;;;1.50;99.90;;;;;;5046116;28;19927;-69
2021/01/25 00:15:32;;;;;;;;;;;1.50;99.90;;;;;;5049431;28;19943;-66
2021/01/25 00:18:36;;;;;;;;;;;1.50;99.90;;;;;;5049760;28;19924;-69
2021/01/25 00:21:42;;;;;;;;;;;1.60;99.90;;;;;;5049186;28;19920;-69
2021/01/25 00:24:46;;;;;;;;;;;1.60;99.90;;;;;;5048081;28;20245;-67
2021/01/25 00:27:50;;;;;;;;;;;1.50;99.90;;;;;;5042234;28;19943;-68
2021/01/25 00:30:54;;;;;;;;;;;1.60;99.90;;;;;;5049640;28;20375;-69
2021/01/25 00:33:58;;;;;;;;;;;1.20;99.90;;;;;;5036954;28;19936;-69
2021/01/25 00:37:02;;;;;;;;;;;1.00;99.90;;;;;;5049368;28;19928;-67
2021/01/25 00:40:07;;;;;;;;;;;1.20;99.90;;;;;;5049592;28;19920;-67
2021/01/25 00:43:11;;;;;;;;;;;1.40;99.90;;;;;;5049511;28;20276;-68
2021/01/25 00:46:15;;;;;;;;;;;1.50;99.90;;;;;;5040970;28;19924;-68
2021/01/25 00:49:19;;;;;;;;;;;1.50;99.90;;;;;;5029938;28;19942;-68
2021/01/25 00:52:23;;;;;;;;;;;1.00;99.90;;;;;;5059885;28;19923;-68
2021/01/25 00:55:27;;;;;;;;;;;1.60;99.90;;;;;;5048490;28;19924;-68
2021/01/25 00:58:31;;;;;;;;;;;1.50;99.90;;;;;;5048236;28;19924;-68
2021/01/25 01:01:35;;;;;;;;;;;1.60;99.90;;;;;;5037750;28;19920;-68
2021/01/25 01:04:39;;;;;;;;;;;1.60;99.90;;;;;;5029448;28;19928;-68
2021/01/25 01:07:43;;;;;;;;;;;1.40;99.90;;;;;;5048707;28;19939;-69
2021/01/25 01:10:47;;;;;;;;;;;1.00;99.90;;;;;;5048828;28;19920;-69
2021/01/25 01:13:51;;;;;;;;;;;1.50;99.90;;;;;;5045737;28;20343;-68
2021/01/25 01:16:55;;;;;;;;;;;1.80;99.90;;;;;;5040096;28;19920;-69
2021/01/25 01:19:58;;;;;;;;;;;1.80;99.90;;;;;;5051510;28;19923;-68
2021/01/25 01:23:02;;;;;;;;;;;2.00;99.90;;;;;;5053501;28;19924;-67
2021/01/25 01:26:07;;;;;;;;;;;1.90;99.90;;;;;;5052374;28;20280;-68
2021/01/25 01:29:11;;;;;;;;;;;1.40;99.90;;;;;;5052709;28;19928;-67
2021/01/25 01:32:15;;;;;;;;;;;1.80;99.90;;;;;;5053156;28;19928;-68
2021/01/25 01:35:19;;;;;;;;;;;2.30;99.90;;;;;;5052586;28;19923;-68
2021/01/25 01:38:23;;;;;;;;;;;2.40;99.90;;;;;;5051362;28;19923;-68
2021/01/25 01:41:27;;;;;;;;;;;2.90;99.90;;;;;;5045587;28;19920;-68
2021/01/25 01:44:31;;;;;;;;;;;3.20;99.90;;;;;;5052212;28;19924;-69
2021/01/25 01:47:35;;;;;;;;;;;3.60;99.90;;;;;;5039417;28;19924;-68
2021/01/25 01:50:39;;;;;;;;;;;3.80;99.90;;;;;;5051256;28;19935;-68
2021/01/25 01:53:43;;;;;;;;;;;4.10;99.90;;;;;;5052789;28;19924;-69
2021/01/25 01:56:48;;;;;;;;;;;4.40;99.90;;;;;;5052735;28;19920;-68
2021/01/25 01:59:53;;;;;;;;;;;4.50;99.90;;;;;;5052034;28;19924;-69
2021/01/25 02:02:57;;;;;;;;;;;4.40;99.90;;;;;;5041168;28;19931;-68
2021/01/25 02:06:03;;;;;;;;;;;4.50;99.90;;;;;;5033036;28;20277;-69
2021/01/25 02:09:07;;;;;;;;;;;4.60;99.90;;;;;;5046344;28;19928;-69
2021/01/25 02:12:13;;;;;;;;;;;4.60;99.90;;;;;;5046922;28;19920;-67
2021/01/25 02:15:18;;;;;;;;;;;3.60;99.90;;;;;;5039252;28;19935;-69
2021/01/25 02:18:22;;;;;;;;;;;3.50;99.90;;;;;;5052635;28;19932;-68
2021/01/25 02:21:29;;;;;;;;;;;3.60;99.90;;;;;;5051269;28;19931;-68
2021/01/25 02:24:40;;;;;;;;;;;3.20;99.90;;;;;;5052189;28;20003;-69
2021/01/25 02:27:44;;;;;;;;;;;2.80;99.90;;;;;;5042962;28;20379;-68
2021/01/25 02:30:48;;;;;;;;;;;3.10;99.90;;;;;;5041224;28;19924;-68
2021/01/25 02:33:55;;;;;;;;;;;3.40;99.90;;;;;;5038191;28;20681;-69
2021/01/25 02:37:00;;;;;;;;;;;3.30;99.90;;;;;;5051381;28;19936;-68
2021/01/25 02:40:07;;;;;;;;;;;3.40;99.90;;;;;;5051679;28;19923;-67
2021/01/25 02:43:11;;;;;;;;;;;3.90;99.90;;;;;;5051843;28;19924;-69
2021/01/25 02:46:16;;;;;;;;;;;4.10;99.90;;;;;;5042457;28;19924;-68
2021/01/25 02:49:20;;;;;;;;;;;4.50;99.90;;;;;;5039800;28;19923;-68
2021/01/25 02:52:24;;;;;;;;;;;4.80;99.90;;;;;;5052188;28;19927;-69
2021/01/25 02:55:28;;;;;;;;;;;4.60;99.90;;;;;;5051705;28;19920;-69
2021/01/25 02:58:32;;;;;;;;;;;4.60;99.90;;;;;;5049971;28;19920;-69
2021/01/25 03:01:37;;;;;;;;;;;4.30;99.90;;;;;;5047061;28;19920;-70
2021/01/25 03:04:42;;;;;;;;;;;4.30;99.90;;;;;;5035336;28;19947;-70
2021/01/25 03:07:47;;;;;;;;;;;4.50;99.90;;;;;;5050874;28;19920;-70
2021/01/25 03:10:51;;;;;;;;;;;4.60;99.90;;;;;;5051270;28;20275;-69
2021/01/25 03:14:04;;;;;;;;;;;4.70;99.90;;;;;;5031640;28;19971;-67
2021/01/25 03:17:08;;;;;;;;;;;4.70;99.90;;;;;;5039226;28;20276;-69
2021/01/25 03:20:12;;;;;;;;;;;4.70;99.90;;;;;;5050465;28;20391;-69
2021/01/25 03:23:16;;;;;;;;;;;4.80;99.90;;;;;;5048410;28;19927;-68
2021/01/25 03:26:20;;;;;;;;;;;4.80;99.90;;;;;;5032736;28;19924;-70
2021/01/25 03:29:24;;;;;;;;;;;4.80;99.90;;;;;;5041792;28;19919;-70
2021/01/25 03:32:28;;;;;;;;;;;4.70;99.90;;;;;;5044946;28;19920;-70
2021/01/25 03:35:32;;;;;;;;;;;4.70;99.90;;;;;;5043960;28;19975;-70
2021/01/25 03:38:37;;;;;;;;;;;4.60;99.90;;;;;;5047959;28;20379;-70
2021/01/25 03:41:40;;;;;;;;;;;4.90;99.90;;;;;;5049532;28;19939;-70
2021/01/25 03:44:44;;;;;;;;;;;5.10;99.90;;;;;;5030041;28;19924;-70
2021/01/25 03:47:48;;;;;;;;;;;4.90;99.90;;;;;;5039696;28;19924;-70
2021/01/25 03:50:54;;;;;;;;;;;4.90;99.90;;;;;;5049678;28;20403;-70
2021/01/25 03:53:57;;;;;;;;;;;4.90;99.90;;;;;;5036380;28;19915;-70
2021/01/25 03:57:02;;;;;;;;;;;4.80;99.90;;;;;;5049908;28;19944;-69
2021/01/25 04:00:07;;;;;;;;;;;4.60;99.90;;;;;;5049004;28;19924;-70
2021/01/25 04:03:13;;;;;;;;;;;4.50;99.90;;;;;;5040833;28;19924;-69
2021/01/25 04:06:17;;;;;;;;;;;4.50;99.90;;;;;;5037626;28;20520;-70
2021/01/25 04:09:21;;;;;;;;;;;4.60;99.90;;;;;;5049655;28;20284;-70
2021/01/25 04:12:25;;;;;;;;;;;4.50;99.90;;;;;;5046432;28;20378;-69
2021/01/25 04:15:29;;;;;;;;;;;4.40;99.90;;;;;;5050309;28;19944;-70
2021/01/25 04:18:34;;;;;;;;;;;4.70;99.90;;;;;;5049438;28;19927;-70
2021/01/25 04:21:39;;;;;;;;;;;4.10;99.90;;;;;;5049033;28;19924;-70
2021/01/25 04:24:43;;;;;;;;;;;3.50;99.90;;;;;;5049680;28;19924;-69
2021/01/25 04:27:47;;;;;;;;;;;3.00;99.90;;;;;;5049500;28;20300;-69
2021/01/25 04:30:52;;;;;;;;;;;2.80;99.90;;;;;;5038976;28;19928;-69
2021/01/25 04:33:56;;;;;;;;;;;2.90;99.90;;;;;;5036930;28;20067;-69
2021/01/25 04:37:00;;;;;;;;;;;2.90;99.90;;;;;;5049680;28;20395;-69
2021/01/25 04:40:07;;;;;;;;;;;3.00;99.90;;;;;;5035720;28;19928;-69
2021/01/25 04:43:13;;;;;;;;;;;3.10;99.90;;;;;;5050084;28;19924;-70
2021/01/25 04:46:16;;;;;;;;;;;3.20;99.90;;;;;;5029911;28;19960;-69
2021/01/25 04:49:21;;;;;;;;;;;3.30;99.90;;;;;;5039496;28;19928;-70
2021/01/25 04:52:25;;;;;;;;;;;3.30;99.90;;;;;;5053588;28;19920;-69
2021/01/25 04:55:29;;;;;;;;;;;3.30;99.90;;;;;;5052811;28;19924;-70
2021/01/25 04:58:34;;;;;;;;;;;3.20;99.90;;;;;;5038260;28;20280;-71
2021/01/25 05:01:38;;;;;;;;;;;3.10;99.90;;;;;;5064018;28;19920;-70
2021/01/25 05:04:42;;;;;;;;;;;3.20;99.90;;;;;;5066672;28;19935;-70
2021/01/25 05:07:46;;;;;;;;;;;3.10;99.90;;;;;;5069062;28;19920;-70
2021/01/25 05:14:58;;;;;;;;;;;3.30;99.90;;;;;;5067557;28;20323;-70
2021/01/25 05:18:03;;;;;;;;;;;3.20;99.90;;;;;;5053315;28;20374;-70
2021/01/25 05:21:07;;;;;;;;;;;3.20;99.90;;;;;;5052435;28;19920;-70
2021/01/25 05:24:11;;;;;;;;;;;3.20;99.90;;;;;;5045780;28;19936;-70
2021/01/25 05:27:31;;;;;;;;;;;3.20;99.90;;;;;;5067595;28;20379;-69
2021/01/25 05:30:36;;;;;;;;;;;3.30;99.90;;;;;;5052139;28;19920;-70
2021/01/25 05:33:40;;;;;;;;;;;3.50;99.90;;;;;;5046738;28;19923;-69
2021/01/25 05:36:44;;;;;;;;;;;3.60;99.90;;;;;;5044069;28;19924;-69
2021/01/25 05:39:49;;;;;;;;;;;3.90;99.90;;;;;;5043772;28;19975;-70
2021/01/25 05:42:55;;;;;;;;;;;4.20;99.90;;;;;;5044855;28;19920;-68
2021/01/25 05:46:06;;;;;;;;;;;4.20;99.90;;;;;;5054447;28;20291;-70
2021/01/25 05:58:02;;;;;;;;;;;4.60;99.90;;;;;;5049997;28;19923;-68
2021/01/25 06:01:07;;;;;;;;;;;4.70;99.90;;;;;;5046610;28;20379;-70
2021/01/25 06:04:13;;;;;;;;;;;4.90;99.90;;;;;;5051427;28;20250;-70
2021/01/25 06:07:18;;;;;;;;;;;5.00;99.90;;;;;;5066962;28;19920;-70
2021/01/25 06:10:25;;;;;;;;;;;5.10;99.90;;;;;;5047034;28;19936;-70
2021/01/25 06:13:51;;;;;;;;;;;5.00;99.90;;;;;;5050950;28;20383;-70
2021/01/25 06:16:56;;;;;;;;;;;5.00;99.90;;;;;;5050704;28;20248;-71
2021/01/25 06:20:04;;;;;;;;;;;4.80;99.90;;;;;;5049388;28;19927;-69
2021/01/25 06:23:10;;;;;;;;;;;4.70;99.90;;;;;;5042400;28;19947;-70
2021/01/25 06:26:14;;;;;;;;;;;4.60;99.90;;;;;;5048116;28;19924;-69
2021/01/25 06:29:20;;;;;;;;;;;4.50;99.90;;;;;;5039782;28;19920;-70
2021/01/25 06:32:33;;;;;;;;;;;4.40;99.90;;;;;;5046829;28;19919;-69
2021/01/25 06:35:38;;;;;;;;;;;4.30;99.90;;;;;;5048192;28;19920;-69
2021/01/25 06:38:50;;;;;;;;;;;4.20;99.90;;;;;;5049840;28;19919;-70
2021/01/25 06:42:04;;;;;;;;;;;4.20;99.90;;;;;;5048484;28;19927;-70
2021/01/25 06:45:10;;;;;;;;;;;4.20;99.90;;;;;;5050065;28;19995;-69
2021/01/25 06:48:15;;;;;;;;;;;4.30;99.90;;;;;;5046615;28;19940;-70
2021/01/25 06:51:19;;;;;;;;;;;4.50;99.90;;;;;;5049203;28;20379;-70
2021/01/25 06:54:25;;;;;;;;;;;4.70;99.90;;;;;;5045622;28;20382;-71
2021/01/25 06:57:33;;;;;;;;;;;5.20;99.90;;;;;;5043784;28;19936;-70
2021/01/25 07:00:41;;;;;;;;;;;5.20;99.90;;;;;;5042674;28;20406;-70
2021/01/25 07:03:51;;;;;;;;;;;5.20;99.90;;;;;;5045931;28;20030;-71
2021/01/25 07:06:57;;;;;;;;;;;5.30;99.90;;;;;;5045095;28;19927;-69
2021/01/25 07:10:04;;;;;;;;;;;5.30;99.90;;;;;;5046849;28;19940;-70
2021/01/25 07:13:08;;;;;;;;;;;5.50;99.90;;;;;;5042589;28;19920;-70
2021/01/25 07:16:11;;;;;;;;;;;5.50;99.90;;;;;;5040196;28;19927;-70
2021/01/25 07:19:16;;;;;;;;;;;5.50;99.90;;;;;;5045669;28;20398;-72
2021/01/25 07:22:21;;;;;;;;;;;5.50;99.90;;;;;;5050063;28;20276;-70
2021/01/25 07:25:27;;;;;;;;;;;5.60;99.90;;;;;;5049421;28;20295;-71
2021/01/25 07:28:32;;;;;;;;;;;5.60;99.90;;;;;;5047362;28;20387;-71
2021/01/25 07:31:39;;;;;;;;;;;5.70;99.90;;;;;;5046114;28;19920;-70
2021/01/25 07:34:43;;;;;;;;;;;4.80;99.90;;;;;;5034998;28;19924;-70
2021/01/25 07:37:47;;;;;;;;;;;4.80;99.90;;;;;;5048566;28;19928;-70
2021/01/25 07:40:52;;;;;;;;;;;4.70;99.90;;;;;;5047683;28;20260;-70
2021/01/25 07:43:56;;;;;;;;;;;4.60;99.90;;;;;;5042769;28;19920;-71
2021/01/25 07:47:03;;;;;;;;;;;4.70;99.90;;;;;;5044155;28;19924;-70
2021/01/25 07:50:08;;;;;;;;;;;4.80;99.90;;;;;;5047022;28;19928;-70
2021/01/25 07:53:14;;;;;;;;;;;5.00;99.90;;;;;;5044861;28;20394;-70
2021/01/25 07:56:19;;;;;;;;;;;5.10;99.90;;;;;;5045827;28;20486;-70
2021/01/25 07:59:31;;;;;;;;;;;5.10;99.90;;;;;;5045274;28;19944;-70
2021/01/25 08:02:35;;;;;;;;;;;5.30;99.90;;;;;;5046475;28;19920;-70
2021/01/25 08:05:40;;;;;;;;;;;5.40;99.90;;;;;;5045982;28;19924;-69
2021/01/25 08:08:48;;;;;;;;;;;5.50;99.90;;;;;;5045746;28;19943;-69
2021/01/25 08:11:53;;;;;;;;;;;5.50;99.90;;;;;;5041898;28;20383;-70
2021/01/25 08:15:03;;;;;;;;;;;5.60;99.90;;;;;;5046316;28;19924;-68
2021/01/25 08:18:07;;;;;;;;;;;5.70;99.90;;;;;;5042944;28;19924;-70
2021/01/25 08:21:14;;;;;;;;;;;5.80;99.90;;;;;;5038133;28;19943;-68
2021/01/25 08:33:28;;;;;;;;;;;6.10;99.90;;;;;;5043973;28;19920;-70
2021/01/25 08:36:35;;;;;;;;;;;6.20;99.90;;;;;;5037883;28;19925;-69
2021/01/25 08:39:42;;;;;;;;;;;6.40;99.90;;;;;;5047337;28;19919;-69
2021/01/25 08:42:47;;;;;;;;;;;6.40;99.90;;;;;;5043361;28;20445;-70
2021/01/25 08:45:53;;;;;;;;;;;6.40;99.90;;;;;;5047361;28;19936;-68
2021/01/25 08:49:15;;;;;;;;;;;6.40;99.90;;;;;;5046344;28;19935;-71
2021/01/25 08:52:25;;;;;;;;;;;6.50;99.90;;;;;;5041022;28;19936;-70
2021/01/25 08:55:49;;;;;;;;;;;6.50;99.90;;;;;;5047295;28;19920;-70
2021/01/25 08:58:53;;;;;;;;;;;6.60;99.90;;;;;;5046007;28;20345;-69
2021/01/25 09:02:08;;;;;;;;;;;6.60;99.90;;;;;;5045521;28;19936;-71
2021/01/25 09:18:36;;;;;;;;;;;6.70;99.90;;;;;;5047899;28;19931;-70
2021/01/25 09:21:41;;;;;;;;;;;6.90;99.90;;;;;;5045728;28;19924;-70
2021/01/25 09:24:45;;;;;;;;;;;7.00;99.90;;;;;;5045334;28;19924;-69
2021/01/25 09:27:51;;;;;;;;;;;7.10;99.90;;;;;;5045411;28;20088;-70
2021/01/25 09:30:55;;;;;;;;;;;7.20;99.90;;;;;;5043764;28;19992;-70
2021/01/25 09:33:59;;;;;;;;;;;7.30;99.90;;;;;;5046085;28;19924;-70
2021/01/25 09:37:07;;;;;;;;;;;7.50;99.90;;;;;;5048818;28;19925;-70
2021/01/25 09:40:11;;;;;;;;;;;7.70;99.90;;;;;;5046917;28;19928;-70
2021/01/25 09:43:15;;;;;;;;;;;7.90;99.90;;;;;;5052474;28;19936;-70
2021/01/25 09:46:19;;;;;;;;;;;8.10;99.90;;;;;;5053183;28;19924;-70
2021/01/25 09:49:23;;;;;;;;;;;8.00;99.90;;;;;;5050948;28;19924;-71
2021/01/25 09:52:27;;;;;;;;;;;8.00;99.90;;;;;;5039238;28;19924;-70
2021/01/25 09:55:31;;;;;;;;;;;8.10;99.90;;;;;;5051023;28;20283;-70
2021/01/25 09:58:36;;;;;;;;;;;8.10;99.90;;;;;;5051377;28;19920;-70
2021/01/25 10:01:40;;;;;;;;;;;8.00;99.90;;;;;;5049615;28;19924;-70
2021/01/25 10:04:44;;;;;;;;;;;8.00;99.90;;;;;;5050039;28;19924;-70
2021/01/25 10:07:48;;;;;;;;;;;8.10;99.90;;;;;;5050935;28;19923;-70
2021/01/25 10:10:52;;;;;;;;;;;8.20;99.90;;;;;;5050396;28;19939;-70
2021/01/25 10:13:56;;;;;;;;;;;8.20;99.90;;;;;;5051575;28;19920;-70
2021/01/25 10:17:00;;;;;;;;;;;8.20;99.90;;;;;;5052734;28;19920;-70
2021/01/25 10:20:05;;;;;;;;;;;8.20;99.90;;;;;;5050915;28;19944;-68
2021/01/25 10:23:10;;;;;;;;;;;8.30;99.90;;;;;;5049516;28;19920;-70
2021/01/25 10:26:15;;;;;;;;;;;8.30;99.90;;;;;;5049902;28;20387;-70
2021/01/25 10:29:19;;;;;;;;;;;8.30;99.90;;;;;;5050044;28;19919;-71
2021/01/25 10:32:25;;;;;;;;;;;8.30;99.90;;;;;;5047104;28;19935;-69
2021/01/25 10:35:30;;;;;;;;;;;8.50;99.90;;;;;;5050920;28;19920;-70
2021/01/25 10:38:34;;;;;;;;;;;8.90;99.90;;;;;;5051287;28;20414;-70
2021/01/25 10:41:38;;;;;;;;;;;9.10;99.90;;;;;;5039304;28;19939;-70
2021/01/25 10:44:42;;;;;;;;;;;9.20;99.90;;;;;;5051064;28;19954;-69
2021/01/25 10:47:46;;;;;;;;;;;9.50;99.90;;;;;;5049505;28;19931;-70
2021/01/25 10:50:51;;;;;;;;;;;9.70;99.90;;;;;;5049759;28;19936;-70
2021/01/25 10:53:54;;;;;;;;;;;10.10;99.90;;;;;;5041612;28;19923;-70
2021/01/25 10:57:00;;;;;;;;;;;9.90;99.90;;;;;;5047568;28;19933;-70
2021/01/25 11:00:15;;;;;;;;;;;9.40;99.90;;;;;;5050447;28;19923;-70
2021/01/25 11:03:20;;;;;;;;;;;9.20;99.90;;;;;;5049862;28;19920;-70
2021/01/25 11:06:24;;;;;;;;;;;9.00;99.90;;;;;;5047635;28;19924;-70
2021/01/25 11:09:29;;;;;;;;;;;8.80;99.90;;;;;;5041717;28;19920;-69
2021/01/25 11:12:34;;;;;;;;;;;8.70;99.90;;;;;;5049466;28;19928;-70
2021/01/25 11:15:39;;;;;;;;;;;8.80;99.90;;;;;;5049055;28;20307;-70
2021/01/25 11:18:43;;;;;;;;;;;9.50;99.90;;;;;;5049296;28;20256;-71
2021/01/25 11:21:47;;;;;;;;;;;11.00;99.90;;;;;;5048521;28;19920;-70
2021/01/25 11:24:51;;;;;;;;;;;12.40;99.90;;;;;;5049340;28;19923;-69
2021/01/25 11:27:55;;;;;;;;;;;13.10;99.90;;;;;;5049472;28;19919;-70
2021/01/25 11:30:59;;;;;;;;;;;13.00;99.90;;;;;;5047808;28;19928;-70
2021/01/25 11:34:05;;;;;;;;;;;13.00;99.90;;;;;;5049088;28;19935;-69
2021/01/25 11:37:09;;;;;;;;;;;12.30;99.90;;;;;;5049439;28;19920;-68
2021/01/25 11:40:13;;;;;;;;;;;12.00;99.90;;;;;;5048766;28;19943;-70
2021/01/25 11:43:18;;;;;;;;;;;11.30;99.90;;;;;;5036757;28;19913;-70
2021/01/25 11:46:22;;;;;;;;;;;10.10;99.90;;;;;;5048557;28;20296;-69
2021/01/25 11:49:26;;;;;;;;;;;9.20;99.90;;;;;;5050596;28;19920;-70
2021/01/25 11:52:31;;;;;;;;;;;8.50;99.90;;;;;;5038830;28;19931;-69
2021/01/25 11:55:36;;;;;;;;;;;8.30;99.90;;;;;;5044196;28;19924;-70
2021/01/25 11:58:40;;;;;;;;;;;8.30;99.90;;;;;;5037014;28;19923;-69
2021/01/25 12:01:44;;;;;;;;;;;9.00;99.90;;;;;;5049884;28;20291;-69
2021/01/25 12:04:50;;;;;;;;;;;9.50;99.90;;;;;;5037126;28;19924;-69
2021/01/25 12:07:54;;;;;;;;;;;9.40;99.90;;;;;;5046627;28;20526;-69
2021/01/25 12:10:59;;;;;;;;;;;9.10;99.90;;;;;;5045707;28;19924;-68
2021/01/25 12:14:03;;;;;;;;;;;8.60;99.90;;;;;;5047725;28;19920;-70
2021/01/25 12:17:07;;;;;;;;;;;8.00;99.90;;;;;;5049123;28;20252;-69
2021/01/25 12:20:12;;;;;;;;;;;7.80;99.90;;;;;;5045353;28;19928;-69
2021/01/25 12:23:17;;;;;;;;;;;7.80;99.90;;;;;;5047874;28;19920;-69
2021/01/25 12:26:22;;;;;;;;;;;7.80;99.90;;;;;;5047409;28;19928;-69
2021/01/25 12:29:26;;;;;;;;;;;7.70;99.90;;;;;;5049345;28;19931;-69
2021/01/25 12:32:30;;;;;;;;;;;7.70;99.90;;;;;;5046606;28;19920;-70
2021/01/25 12:35:34;;;;;;;;;;;7.70;99.90;;;;;;5049667;28;20377;-70
2021/01/25 12:38:40;;;;;;;;;;;7.70;99.90;;;;;;5047888;28;19924;-70
2021/01/25 12:41:46;;;;;;;;;;;7.80;99.90;;;;;;5047792;28;19928;-69
2021/01/25 12:44:49;;;;;;;;;;;7.90;99.90;;;;;;5038074;28;19919;-70
2021/01/25 12:47:53;;;;;;;;;;;7.90;99.90;;;;;;5047208;28;19920;-70
2021/01/25 12:50:58;;;;;;;;;;;8.40;99.90;;;;;;5043358;28;19924;-71
2021/01/25 12:54:03;;;;;;;;;;;8.80;99.90;;;;;;5047506;28;19920;-70
2021/01/25 12:57:07;;;;;;;;;;;9.20;99.90;;;;;;5043779;28;19923;-69
2021/01/25 13:00:13;;;;;;;;;;;10.00;99.90;;;;;;5046637;28;20378;-70
2021/01/25 13:03:18;;;;;;;;;;;11.80;99.90;;;;;;5047930;28;19928;-69
2021/01/25 13:06:23;;;;;;;;;;;13.90;99.90;;;;;;5047049;28;20386;-71
2021/01/25 13:09:27;;;;;;;;;;;15.10;99.90;;;;;;5046630;28;19939;-70
2021/01/25 13:12:36;;;;;;;;;;;15.50;99.90;;;;;;5051827;28;19919;-69
2021/01/25 13:15:42;;;;;;;;;;;15.80;99.90;;;;;;5051652;28;19924;-69
2021/01/25 13:18:46;;;;;;;;;;;15.70;99.90;;;;;;5051338;28;20299;-69
2021/01/25 13:21:50;;;;;;;;;;;15.00;99.90;;;;;;5050013;28;19924;-69
2021/01/25 13:24:55;;;;;;;;;;;14.40;99.90;;;;;;5049888;28;19951;-69
2021/01/25 13:28:00;;;;;;;;;;;13.30;99.90;;;;;;5051451;28;19923;-69
2021/01/25 13:31:04;;;;;;;;;;;12.70;99.90;;;;;;5050062;28;19920;-68
2021/01/25 13:34:09;;;;;;;;;;;12.50;99.90;;;;;;5050031;28;19923;-69
2021/01/25 13:37:13;;;;;;;;;;;12.50;99.90;;;;;;5051232;28;19923;-69
2021/01/25 13:40:19;;;;;;;;;;;12.20;99.90;;;;;;5048690;28;19919;-69
2021/01/25 13:43:24;;;;;;;;;;;12.00;99.90;;;;;;5050381;28;19913;-70
2021/01/25 13:46:28;;;;;;;;;;;12.00;99.90;;;;;;5049676;28;19940;-69
2021/01/25 13:49:32;;;;;;;;;;;12.20;99.90;;;;;;5050513;28;19928;-70
2021/01/25 13:52:36;;;;;;;;;;;12.90;99.90;;;;;;5050825;28;19991;-70
2021/01/25 13:55:41;;;;;;;;;;;13.60;99.90;;;;;;5052448;28;19920;-70
2021/01/25 13:58:45;;;;;;;;;;;13.70;99.90;;;;;;5048424;28;19913;-70
2021/01/25 14:01:49;;;;;;;;;;;14.70;99.90;;;;;;5051882;28;19920;-70
2021/01/25 14:04:53;;;;;;;;;;;14.20;99.90;;;;;;5047152;28;20469;-70
2021/01/25 14:07:57;;;;;;;;;;;13.20;99.90;;;;;;5051331;28;19924;-69
2021/01/25 14:11:01;;;;;;;;;;;12.80;99.90;;;;;;5051271;28;19919;-70
2021/01/25 14:14:05;;;;;;;;;;;12.90;99.90;;;;;;5051067;28;19996;-70
2021/01/25 14:17:10;;;;;;;;;;;11.90;99.90;;;;;;5052247;28;19920;-70
2021/01/25 14:20:16;;;;;;;;;;;12.30;99.90;;;;;;5049876;28;19928;-70
2021/01/25 14:23:20;;;;;;;;;;;12.20;99.90;;;;;;5052228;28;20296;-69
2021/01/25 14:26:24;;;;;;;;;;;11.60;99.90;;;;;;5041231;28;19924;-70
2021/01/25 14:29:28;;;;;;;;;;;10.90;99.90;;;;;;5044208;28;20264;-69
2021/01/25 14:32:32;;;;;;;;;;;10.40;99.90;;;;;;5049221;28;19917;-70
2021/01/25 14:35:36;;;;;;;;;;;10.10;99.90;;;;;;5048789;28;19923;-70
2021/01/25 14:38:41;;;;;;;;;;;9.90;99.90;;;;;;5049314;28;19967;-69
2021/01/25 14:41:45;;;;;;;;;;;9.50;99.90;;;;;;5046201;28;19924;-69
2021/01/25 14:44:49;;;;;;;;;;;9.10;99.90;;;;;;5050404;28;19928;-69
2021/01/25 14:47:56;;;;;;;;;;;8.80;99.90;;;;;;5051436;28;19924;-70
2021/01/25 14:51:04;;;;;;;;;;;8.40;99.90;;;;;;5041826;28;19928;-69
2021/01/25 14:54:08;;;;;;;;;;;8.00;99.90;;;;;;5048160;28;20482;-69
2021/01/25 14:57:12;;;;;;;;;;;7.80;99.90;;;;;;5050538;28;19920;-69
2021/01/25 15:00:18;;;;;;;;;;;7.80;99.90;;;;;;5050581;28;19940;-69
2021/01/25 15:03:23;;;;;;;;;;;7.60;99.90;;;;;;5051910;28;19928;-68
2021/01/25 15:06:28;;;;;;;;;;;7.60;99.90;;;;;;5047296;28;19927;-69
2021/01/25 15:09:32;;;;;;;;;;;7.50;99.90;;;;;;5049724;28;19920;-68
2021/01/25 15:12:37;;;;;;;;;;;7.50;99.90;;;;;;5049663;28;19920;-69
2021/01/25 15:15:41;;;;;;;;;;;7.40;99.90;;;;;;5049390;28;20414;-68
2021/01/25 15:18:45;;;;;;;;;;;7.20;99.90;;;;;;5048672;28;19962;-69
2021/01/25 15:21:49;;;;;;;;;;;7.20;99.90;;;;;;5043053;28;20375;-69
2021/01/25 15:24:53;;;;;;;;;;;7.20;99.90;;;;;;5041496;28;19939;-69
2021/01/25 15:27:59;;;;;;;;;;;7.20;99.90;;;;;;5048776;28;19928;-69
2021/01/25 15:31:02;;;;;;;;;;;7.30;99.90;;;;;;5046117;28;19966;-68
2021/01/25 15:34:06;;;;;;;;;;;7.40;99.90;;;;;;5041164;28;19920;-69
2021/01/25 15:37:12;;;;;;;;;;;7.40;99.90;;;;;;5049238;28;20403;-68
2021/01/25 15:40:17;;;;;;;;;;;7.50;99.90;;;;;;5043325;28;19920;-68
2021/01/25 15:43:22;;;;;;;;;;;7.50;99.90;;;;;;5046052;28;19924;-69
2021/01/25 15:46:27;;;;;;;;;;;7.40;99.90;;;;;;5045360;28;19924;-69
2021/01/25 15:49:31;;;;;;;;;;;7.20;99.90;;;;;;5048853;28;19928;-69
2021/01/25 15:52:38;;;;;;;;;;;7.00;99.90;;;;;;5047212;28;19920;-69
2021/01/25 15:55:41;;;;;;;;;;;6.80;99.90;;;;;;5043312;28;19924;-69
2021/01/25 15:58:46;;;;;;;;;;;6.60;99.90;;;;;;5050296;28;20287;-69
2021/01/25 16:01:51;;;;;;;;;;;6.40;99.90;;;;;;5050647;28;19928;-69
2021/01/25 16:04:55;;;;;;;;;;;6.30;99.90;;;;;;5036646;28;19920;-69
2021/01/25 16:07:59;;;;;;;;;;;6.10;99.90;;;;;;5048216;28;19944;-69
2021/01/25 16:11:03;;;;;;;;;;;6.00;99.90;;;;;;5042804;28;19928;-68
2021/01/25 16:14:07;;;;;;;;;;;5.80;99.90;;;;;;5047722;28;19920;-69
2021/01/25 16:17:16;;;;;;;;;;;5.70;99.90;;;;;;5048460;28;19920;-69
2021/01/25 16:20:20;;;;;;;;;;;5.60;99.90;;;;;;5047785;28;19923;-68
2021/01/25 16:23:24;;;;;;;;;;;5.50;99.90;;;;;;5049973;28;19924;-69
2021/01/25 16:26:28;;;;;;;;;;;5.50;99.90;;;;;;5049359;28;19924;-69
2021/01/25 16:29:34;;;;;;;;;;;5.50;99.90;;;;;;5048630;28;19936;-68
2021/01/25 16:32:38;;;;;;;;;;;5.50;99.90;;;;;;5050695;28;19935;-69
2021/01/25 16:35:42;;;;;;;;;;;5.50;99.90;;;;;;5037584;28;19940;-69
2021/01/25 16:38:46;;;;;;;;;;;5.50;99.90;;;;;;5050001;28;19927;-68
2021/01/25 16:41:57;;;;;;;;;;;5.50;99.90;;;;;;5048621;28;19920;-69
2021/01/25 16:45:02;;;;;;;;;;;5.50;99.90;;;;;;5050114;28;19924;-69
2021/01/25 16:48:06;;;;;;;;;;;5.50;99.90;;;;;;5045803;28;20378;-69
2021/01/25 16:51:11;;;;;;;;;;;5.50;99.90;;;;;;5034600;28;20264;-69
2021/01/25 16:54:15;;;;;;;;;;;5.50;99.90;;;;;;5051872;28;19963;-67
2021/01/25 16:57:19;;;;;;;;;;;5.40;99.90;;;;;;5049916;28;20867;-70
2021/01/25 17:00:23;;;;;;;;;;;5.40;99.90;;;;;;5048063;28;19932;-69
2021/01/25 17:03:27;;;;;;;;;;;5.40;99.90;;;;;;5052651;28;19919;-69
2021/01/25 17:06:31;;;;;;;;;;;5.40;99.90;;;;;;5049184;28;19924;-70
2021/01/25 17:09:38;;;;;;;;;;;5.30;99.90;;;;;;5052514;28;19924;-69
2021/01/25 17:12:42;;;;;;;;;;;5.30;99.90;;;;;;5050691;28;19919;-68
2021/01/25 17:15:46;;;;;;;;;;;5.30;99.90;;;;;;5053666;28;19925;-69
2021/01/25 17:18:50;;;;;;;;;;;5.20;99.90;;;;;;5043864;28;19940;-69
2021/01/25 17:22:00;;;;;;;;;;;5.20;99.90;;;;;;5051534;28;19932;-69
2021/01/25 17:25:06;;;;;;;;;;;5.10;99.90;;;;;;5050481;28;19928;-69
2021/01/25 17:28:11;;;;;;;;;;;5.10;99.90;;;;;;5051620;28;19938;-70
2021/01/25 17:31:15;;;;;;;;;;;5.10;99.90;;;;;;5045797;28;19924;-67
2021/01/25 17:34:20;;;;;;;;;;;5.00;99.90;;;;;;5051907;28;19920;-68
2021/01/25 17:37:24;;;;;;;;;;;5.00;99.90;;;;;;5051271;28;19924;-70
2021/01/25 17:40:28;;;;;;;;;;;5.00;99.90;;;;;;5047634;28;20422;-69
2021/01/25 17:43:32;;;;;;;;;;;4.90;99.90;;;;;;5049558;28;19920;-69
2021/01/25 17:46:37;;;;;;;;;;;4.90;99.90;;;;;;5047116;28;19928;-70
2021/01/25 17:49:41;;;;;;;;;;;4.90;99.90;;;;;;5051375;28;19932;-67
2021/01/25 17:52:47;;;;;;;;;;;4.80;99.90;;;;;;5047800;28;19920;-70
2021/01/25 17:55:51;;;;;;;;;;;4.80;99.90;;;;;;5050491;28;19920;-69
2021/01/25 17:58:54;;;;;;;;;;;4.70;99.90;;;;;;5051803;28;20395;-69
2021/01/25 18:01:58;;;;;;;;;;;4.70;99.90;;;;;;5051391;28;19920;-69
2021/01/25 18:05:04;;;;;;;;;;;4.50;99.90;;;;;;5051378;28;20386;-69
2021/01/25 18:08:08;;;;;;;;;;;4.30;99.90;;;;;;5051662;28;20338;-69
2021/01/25 18:11:12;;;;;;;;;;;4.20;99.90;;;;;;5046182;28;19920;-69
2021/01/25 18:14:17;;;;;;;;;;;4.10;99.90;;;;;;5050398;28;19924;-69
2021/01/25 18:17:21;;;;;;;;;;;4.00;99.90;;;;;;5051153;28;19924;-69
2021/01/25 18:20:28;;;;;;;;;;;3.80;99.90;;;;;;5049249;28;19931;-70
2021/01/25 18:23:32;;;;;;;;;;;3.70;99.90;;;;;;5049999;28;19920;-67
2021/01/25 18:26:37;;;;;;;;;;;3.60;99.90;;;;;;5050507;28;19924;-67
2021/01/25 18:29:41;;;;;;;;;;;3.50;99.90;;;;;;5046849;28;19920;-69
2021/01/25 18:32:49;;;;;;;;;;;3.40;99.90;;;;;;5052780;28;19940;-67
2021/01/25 18:35:53;;;;;;;;;;;3.30;99.90;;;;;;5046760;28;19924;-68
2021/01/25 18:38:57;;;;;;;;;;;3.20;99.90;;;;;;5040933;28;19923;-70
2021/01/25 18:42:03;;;;;;;;;;;3.20;99.90;;;;;;5044495;28;19924;-69
2021/01/25 18:45:07;;;;;;;;;;;3.10;99.90;;;;;;5052120;28;19920;-69